METAR Data

Data at: 0618 UTC 28 Sep 2022

METAR for:LIPZ (Venice/Polo Arpt, VE, IT)
Text:LIPZ 280550Z 02009KT 9999 SCT050 12/09 Q1001 NOSIG
Temperature: 12.0°C ( 54°F)
Dewpoint: 9.0°C ( 48°F) [RH = 82%]
Pressure (altimeter):29.56 inches Hg (1001.0 mb)
Winds:from the NNE (20 degrees) at 10 MPH (9 knots; 4.6 m/s)
Visibility:6 or more sm (10+ km)
Ceiling:at least 12,000 feet AGL
Clouds: scattered clouds at 5000 feet AGL

TAF for:LIPZ (Venice/Polo Arpt, VE, IT) issued at 0500 UTC 28 Sep 2022
Text:TAF LIPZ 280500Z 2806/2912 04008KT 9999 SCT030
Forecast period:0600 UTC 28 September 2022 to 1200 UTC 29 September 2022
Forecast type:FROM: standard forecast or significant change
Winds:from the NE (40 degrees) at 9 MPH (8 knots; 4.1 m/s)
Visibility:6 or more sm (10+ km)
Ceiling:at least 12,000 feet AGL
Clouds: scattered clouds at 3000 feet AGL
Text:PROB40
Forecast period:1800 UTC 28 September 2022 to 0000 UTC 29 September 2022
Forecast type:TEMPORARY: The following changes expected for less than half the time period
Visibility: 2.49 sm ( 4.01 km)
Clouds:missing
Weather:TSRA (rain associated with thunderstorm(s))